Ride Results

Currowan Endurance Ride (06-07-2014)
Ride distance: 80.0 km

Outcomes - Currowan Endurance Ride (06-07-2014)
Division No. of Entries Retired / DNE Completed Withdrawn Ineligible V/O Percentage Completed
HW 9 - 7 - - 2 77.78%
MW 17 - 12 1 - 4 70.59%
LW 13 - 12 - - 1 92.31%
JN 1 - 1 - - - 100.00%
Totals 40 - 32 1 - 7 80.00%
Results - Currowan Endurance Ride (06-07-2014)
No. Rider Horse Place Time Leg Speeds Total
Km/Hr
H/R bpm
Heavyweight
34 Scott Peters Castlebar Icon 1 5:41:00 15.3, 12.9 14.08 28, 44, 47 (Avg:45)
66 Robert Catlin Copperkahn Tiara 2 (BC) 5:47:00 13.4, 14.2 13.83 30, 38, 43 (Avg:40)
45 Stacey Wood Yukon Park Shiloh 3 6:37:00 12.0, 12.1 12.09 44, 44, 60 (Avg:52)
19 Sue Warren Lilonda Sharjah 4 6:53:00 12.1, 11.0 11.62 40, 48, 52 (Avg:50)
109 Marty Moran Jelignite Jack 5 7:04:00 12.0, 10.6 11.32 36, 45, 55 (Avg:50)
53 Stuart Lymbery Aloha Typic 6 7:31:00 11.9, 9.5 10.64 34, 39, 43 (Avg:41)
105 Peter Norman Paris 7 8:35:00 10.3, 8.3 9.32 32, 36, 40 (Avg:38)
104 Charles Gauci Charleville Lady Gall or injury L1 0:00:00 18.2 - 44, 68 (Avg:68)
103 Duncan Myers Trazir Amir Rhazzikh Lame L1 0:00:00 13.2 - 32, 40 (Avg:40)
Middleweight
29 Talea Hasko-Stewart Blake's Heaven Angelico 1 (BC) 4:42:00 18.2, 15.8 17.02 34, 43, 53 (Avg:48)
6 Clare Feary Die Kinder Junrei 2 5:47:00 13.4, 14.2 13.83 36, 41, 42 (Avg:41)
21 Anita Ashby Brookleigh Shiralee 3 6:15:00 13.2, 12.3 12.80 36, 39, 43 (Avg:41)
16 Jo Davis Wings Exhibit 4 6:37:00 12.0, 12.1 12.09 32, 44, 42 (Avg:43)
40 Tayla Warren Warren Park Kiara 5 6:53:00 12.1, 11.0 11.62 28, 38, 43 (Avg:40)
110 Brett Willis Carlwood Park Austen 6 7:08:00 13.1, 9.6 11.21 28, 38, 48 (Avg:43)
52 Anne Lymbery Garonne Park Walker 7 7:31:00 11.9, 9.5 10.64 36, 46, 53 (Avg:49)
57 Maddy Collins MA Elyah 8 7:51:00 10.1, 10.2 10.19 33, 40, 48 (Avg:44)
60 Aaron Dowling Willowcroft Elusive 8 7:51:00 10.1, 10.2 10.19 35, 48, 48 (Avg:48)
17 Lyn Trudgett Mount Macquarie Bobbie 10 7:55:00 10.1, 10.0 10.11 46, 44, 40 (Avg:42)
68 Barbara Wiecek Henley Farm Waffar 11 8:31:00 8.9, 9.8 9.39 40, 41, 59 (Avg:50)
72 Katsumi Ishiguro Keldon Park Sophena 12 9:19:00 12.0, 6.5 8.59 43, 53, 59 (Avg:56)
65 John Symons Forest Dale Xasperation Heart Rate L2 0:00:00 12.6, 10.1 - 29, 48, 68 (Avg:58)
107 Bev Turner Shazzam Heart Rate L2 0:00:00 12.0, 10.6 - 34, 42, 64 (Avg:53)
70 Kayte Barnard Henley Farm Farhan Lame L1 0:00:00 8.9 - 37, 43 (Avg:43)
63 Bruce Carter Dasharm Zayesha Withdrawn L1 0:00:00 - - 26, 43 (Avg:43)
73 Louise Piddington Currowan Waratah Lame P/R 0:00:00 - - 44
Lightweight
64 Tracy-Lee Feltrin Magic Glenn Lumiah 1 4:19:00 18.2, 18.8 18.53 44, 43, 48 (Avg:45)
18 Vetea Facchini Trigger 2 (BC) 4:19:30 18.2, 18.7 18.50 32, 37, 41 (Avg:39)
62 Sally Fenner Cherox Aladdin 3 4:42:00 18.2, 15.8 17.02 32, 40, 46 (Avg:43)
42 Fia Hasko-Stewart Wantley Kaliph 3 4:42:00 18.3, 15.7 17.02 36, 44, 49 (Avg:46)
67 Kristie Wright Blake's Heaven Venus 3 4:42:00 18.3, 15.7 17.02 37, 44, 42 (Avg:43)
26 Allix Jones Jon De Le Vismad 6 4:47:00 16.0, 17.5 16.72 28, 36, 44 (Avg:40)
61 April Newman Tarnette 6 4:47:00 16.0, 17.5 16.72 28, 42, 45 (Avg:43)
28 Amanda Apperley Duce 8 5:42:00 13.7, 14.3 14.04 30, 40, 40 (Avg:40)
74 Jessica Drain-Shepheard Prince Ibn Alii 9 6:01:00 13.7, 12.8 13.30 41, 41, 54 (Avg:47)
27 Leanne Holz Carlwood Park Frosty 10 7:08:00 13.1, 9.6 11.21 34, 36, 44 (Avg:40)
58 Courtney Chapman Castlebar Porche 11 7:51:00 10.1, 10.2 10.19 32, 38, 37 (Avg:37)
71 Mary Hollingsworth Vanlinor Park Ben 12 8:31:00 8.9, 9.8 9.39 36, 48, 38 (Avg:43)
51 Sue Todd Shakista Heart Rate L2 0:00:00 13.6, 11.9 - 30, 46, 66 (Avg:56)
Junior
43 Victoria Bice Georgie Girl 1 (BC) 6:15:00 13.6, 11.9 12.80 32, 40, 42 (Avg:41)